Time;durP1;ratioP1;P1;durP2;ratioP2;P2;SDS_P1;SDS_P2;PMS_P1;PMS_P2;Temp;Humidity;BMP_temperature;BMP_pressure;BME280_temperature;BME280_humidity;BME280_pressure;Samples;Min_cycle;Max_cycle;Signal;HPM_P1;HPM_P2
2022/01/07 00:03:18;;;;;;;30.43;19.10;;;;;;;;;;6107398;28;20501;-64
2022/01/07 00:06:38;;;;;;;25.03;19.00;;;;;;;;;;6099816;28;20232;-65
2022/01/07 00:09:59;;;;;;;28.80;17.43;;;;;;;;;;6111689;28;20649;-65
2022/01/07 00:13:21;;;;;;;39.07;19.23;;;;;;;;;;6109125;28;20516;-65
2022/01/07 00:16:42;;;;;;;29.40;19.03;;;;;;;;;;6107984;28;20284;-65
2022/01/07 00:20:03;;;;;;;31.83;21.10;;;;;;;;;;6105712;28;20236;-66
2022/01/07 00:23:24;;;;;;;34.73;22.80;;;;;;;;;;6109544;28;20244;-65
2022/01/07 00:26:45;;;;;;;30.73;20.03;;;;;;;;;;6107446;28;20705;-64
2022/01/07 00:30:08;;;;;;;28.03;20.47;;;;;;;;;;6110322;28;20240;-65
2022/01/07 00:33:29;;;;;;;29.57;21.80;;;;;;;;;;6110993;28;20602;-65
2022/01/07 00:36:49;;;;;;;30.10;20.27;;;;;;;;;;6111598;28;20610;-65
2022/01/07 00:40:11;;;;;;;33.03;20.70;;;;;;;;;;6111837;28;20236;-64
2022/01/07 00:43:32;;;;;;;30.60;20.77;;;;;;;;;;6112504;28;20232;-64
2022/01/07 00:46:53;;;;;;;31.43;19.47;;;;;;;;;;6110901;28;20231;-65
2022/01/07 00:50:15;;;;;;;31.13;19.20;;;;;;;;;;6112685;28;20259;-65
2022/01/07 00:53:35;;;;;;;30.93;19.70;;;;;;;;;;6114193;28;20640;-64
2022/01/07 00:56:56;;;;;;;28.50;18.80;;;;;;;;;;6107526;28;20507;-65
2022/01/07 01:00:18;;;;;;;27.23;19.13;;;;;;;;;;6109703;28;20347;-64
2022/01/07 01:03:40;;;;;;;30.63;21.70;;;;;;;;;;6106049;28;20623;-65
2022/01/07 01:07:00;;;;;;;32.93;20.13;;;;;;;;;;6108219;28;20240;-65
2022/01/07 01:10:24;;;;;;;31.03;22.03;;;;;;;;;;6105882;28;20239;-65
2022/01/07 01:13:44;;;;;;;31.77;20.23;;;;;;;;;;6107094;28;20239;-65
2022/01/07 01:17:05;;;;;;;30.97;20.53;;;;;;;;;;6100064;28;20338;-65
2022/01/07 01:20:28;;;;;;;28.47;19.60;;;;;;;;;;6105336;28;20243;-66
2022/01/07 01:23:50;;;;;;;28.13;18.80;;;;;;;;;;6104068;28;20235;-65
2022/01/07 01:27:10;;;;;;;27.83;20.33;;;;;;;;;;6106880;28;20814;-65
2022/01/07 01:30:33;;;;;;;34.83;19.20;;;;;;;;;;6100877;28;20255;-66
2022/01/07 01:33:53;;;;;;;27.03;17.97;;;;;;;;;;6106663;28;20248;-65
2022/01/07 01:37:15;;;;;;;29.40;19.30;;;;;;;;;;6105248;28;20240;-65
2022/01/07 01:40:36;;;;;;;27.10;17.03;;;;;;;;;;6104306;28;20318;-65
2022/01/07 01:43:57;;;;;;;24.33;15.20;;;;;;;;;;6103866;28;20228;-64
2022/01/07 01:47:17;;;;;;;27.20;17.83;;;;;;;;;;6101931;28;20227;-66
2022/01/07 01:50:38;;;;;;;27.40;16.73;;;;;;;;;;6102981;28;20265;-65
2022/01/07 01:53:59;;;;;;;27.93;15.43;;;;;;;;;;6102427;28;20244;-64
2022/01/07 01:57:20;;;;;;;21.27;15.30;;;;;;;;;;6104565;28;20236;-65
2022/01/07 02:00:41;;;;;;;24.83;15.03;;;;;;;;;;6105989;28;20240;-65
2022/01/07 02:04:02;;;;;;;20.43;14.43;;;;;;;;;;6109386;28;20235;-66
2022/01/07 02:07:25;;;;;;;24.33;15.27;;;;;;;;;;6112390;28;20223;-65
2022/01/07 02:10:47;;;;;;;24.87;15.20;;;;;;;;;;6108232;28;20329;-65
2022/01/07 02:14:11;;;;;;;23.23;14.10;;;;;;;;;;6111406;28;20228;-65
2022/01/07 02:17:32;;;;;;;25.53;15.77;;;;;;;;;;6101450;28;20562;-65
2022/01/07 02:20:54;;;;;;;21.83;14.50;;;;;;;;;;6102447;28;20236;-65
2022/01/07 02:24:14;;;;;;;23.60;14.17;;;;;;;;;;6113462;28;20256;-65
2022/01/07 02:27:37;;;;;;;29.37;16.13;;;;;;;;;;6095307;28;21465;-65
2022/01/07 02:30:57;;;;;;;25.27;16.87;;;;;;;;;;6104715;28;20243;-64
2022/01/07 02:34:18;;;;;;;27.33;14.73;;;;;;;;;;6109745;28;20251;-65
2022/01/07 02:37:40;;;;;;;30.37;15.43;;;;;;;;;;6108978;28;20239;-65
2022/01/07 02:41:01;;;;;;;24.60;14.37;;;;;;;;;;6107917;28;20235;-65
2022/01/07 02:44:21;;;;;;;26.77;14.70;;;;;;;;;;6116377;28;20228;-65
2022/01/07 02:47:50;;;;;;;21.47;12.97;;;;;;;;;;6113906;28;20566;-66
2022/01/07 02:51:11;;;;;;;25.50;13.90;;;;;;;;;;6104249;28;20613;-66
2022/01/07 02:54:33;;;;;;;18.60;11.07;;;;;;;;;;6108788;28;20492;-65
2022/01/07 02:57:54;;;;;;;20.27;12.27;;;;;;;;;;6113893;28;20326;-65
2022/01/07 03:01:14;;;;;;;19.30;12.03;;;;;;;;;;6109289;28;20775;-63
2022/01/07 03:04:35;;;;;;;23.37;12.43;;;;;;;;;;6113207;28;20323;-66
2022/01/07 03:07:56;;;;;;;18.83;10.77;;;;;;;;;;6111207;28;20227;-65
2022/01/07 03:11:18;;;;;;;17.00;11.10;;;;;;;;;;6109879;28;20330;-65
2022/01/07 03:14:38;;;;;;;17.63;11.13;;;;;;;;;;6115673;28;20279;-65
2022/01/07 03:17:59;;;;;;;20.00;10.47;;;;;;;;;;6108583;28;21095;-64
2022/01/07 03:21:20;;;;;;;21.70;11.53;;;;;;;;;;6112012;28;20236;-65
2022/01/07 03:24:40;;;;;;;13.37;10.83;;;;;;;;;;6114139;28;20243;-65
2022/01/07 03:28:02;;;;;;;15.57;9.43;;;;;;;;;;6111734;28;20236;-65
2022/01/07 03:31:23;;;;;;;18.37;9.30;;;;;;;;;;6112123;28;20232;-65
2022/01/07 03:34:43;;;;;;;19.30;10.47;;;;;;;;;;6116708;28;20236;-65
2022/01/07 03:38:04;;;;;;;13.50;8.37;;;;;;;;;;6112827;28;20236;-64
2022/01/07 03:41:26;;;;;;;14.00;9.37;;;;;;;;;;6111202;28;20235;-65
2022/01/07 03:44:49;;;;;;;14.90;9.27;;;;;;;;;;6113552;28;20705;-64
2022/01/07 03:48:09;;;;;;;15.70;9.17;;;;;;;;;;6111720;28;20231;-65
2022/01/07 03:51:29;;;;;;;11.00;8.47;;;;;;;;;;6113310;28;20243;-65
2022/01/07 03:54:50;;;;;;;15.27;8.97;;;;;;;;;;6113714;28;20591;-65
2022/01/07 03:58:11;;;;;;;16.50;8.67;;;;;;;;;;6112153;28;20235;-64
2022/01/07 04:01:33;;;;;;;11.37;7.30;;;;;;;;;;6107189;28;20240;-65
2022/01/07 04:04:55;;;;;;;20.07;8.33;;;;;;;;;;6111722;28;20243;-65
2022/01/07 04:08:16;;;;;;;13.87;8.70;;;;;;;;;;6101259;28;20228;-64
2022/01/07 04:11:36;;;;;;;16.10;8.80;;;;;;;;;;6110799;28;20243;-65
2022/01/07 04:15:07;;;;;;;12.67;7.50;;;;;;;;;;6112390;28;20315;-66
2022/01/07 04:18:29;;;;;;;18.50;9.03;;;;;;;;;;6114316;28;20239;-65
2022/01/07 04:21:50;;;;;;;14.10;8.43;;;;;;;;;;6111506;28;20232;-65
2022/01/07 04:25:13;;;;;;;12.30;7.70;;;;;;;;;;6111362;28;20232;-67
2022/01/07 04:28:33;;;;;;;12.47;7.53;;;;;;;;;;6110808;28;20231;-65
2022/01/07 04:31:54;;;;;;;12.27;6.37;;;;;;;;;;6110143;28;20235;-66
2022/01/07 04:35:16;;;;;;;12.90;6.90;;;;;;;;;;6107841;28;20612;-66
2022/01/07 04:38:37;;;;;;;11.97;7.77;;;;;;;;;;6111516;28;20259;-65
2022/01/07 04:41:59;;;;;;;15.17;7.37;;;;;;;;;;6103821;28;20227;-65
2022/01/07 04:45:20;;;;;;;19.77;8.27;;;;;;;;;;6113066;28;20243;-65
2022/01/07 04:48:40;;;;;;;14.43;7.03;;;;;;;;;;6112503;28;20240;-65
2022/01/07 04:52:02;;;;;;;13.37;6.47;;;;;;;;;;6113316;28;20244;-66
2022/01/07 04:55:24;;;;;;;11.10;7.47;;;;;;;;;;6110815;28;20223;-65
2022/01/07 04:58:46;;;;;;;13.23;7.83;;;;;;;;;;6111663;28;20641;-65
2022/01/07 05:02:07;;;;;;;8.70;6.43;;;;;;;;;;6110508;28;20227;-65
2022/01/07 05:05:28;;;;;;;16.83;8.20;;;;;;;;;;6111105;28;20255;-65
2022/01/07 05:08:50;;;;;;;16.70;9.30;;;;;;;;;;6112420;28;20653;-64
2022/01/07 05:12:11;;;;;;;11.27;8.67;;;;;;;;;;6109258;28;20267;-65
2022/01/07 05:15:31;;;;;;;13.50;8.77;;;;;;;;;;6111416;28;20251;-65
2022/01/07 05:18:52;;;;;;;12.03;9.40;;;;;;;;;;6110700;28;20235;-66
2022/01/07 05:22:12;;;;;;;16.63;9.17;;;;;;;;;;6114289;28;20310;-65
2022/01/07 05:25:35;;;;;;;11.67;7.90;;;;;;;;;;6112446;28;20231;-64
2022/01/07 05:28:55;;;;;;;14.33;8.97;;;;;;;;;;6112635;28;20232;-65
2022/01/07 05:32:16;;;;;;;14.60;8.47;;;;;;;;;;6109224;28;20475;-65
2022/01/07 05:35:36;;;;;;;13.23;7.87;;;;;;;;;;6112601;28;20232;-66
2022/01/07 05:38:57;;;;;;;19.30;10.40;;;;;;;;;;6111594;28;20232;-65
2022/01/07 05:42:19;;;;;;;18.33;10.30;;;;;;;;;;6111061;28;20243;-66
2022/01/07 05:45:40;;;;;;;12.17;7.43;;;;;;;;;;6109570;28;20240;-66
2022/01/07 05:49:01;;;;;;;15.10;9.07;;;;;;;;;;6111155;28;21047;-65
2022/01/07 05:52:21;;;;;;;13.27;7.93;;;;;;;;;;6109125;28;20256;-64
2022/01/07 05:55:42;;;;;;;11.67;9.50;;;;;;;;;;6104859;28;20235;-66
2022/01/07 05:59:04;;;;;;;13.63;7.73;;;;;;;;;;6110188;28;20314;-66
2022/01/07 06:02:24;;;;;;;14.17;9.63;;;;;;;;;;6107266;28;20244;-65
2022/01/07 06:05:45;;;;;;;15.00;8.43;;;;;;;;;;6109754;28;20239;-66
2022/01/07 06:09:06;;;;;;;16.07;9.07;;;;;;;;;;6112106;28;20311;-64
2022/01/07 06:12:26;;;;;;;16.87;8.47;;;;;;;;;;6108793;28;20228;-65
2022/01/07 06:15:49;;;;;;;21.27;8.13;;;;;;;;;;6110634;28;20232;-64
2022/01/07 06:19:09;;;;;;;14.60;8.67;;;;;;;;;;6117498;28;20231;-65
2022/01/07 06:22:30;;;;;;;11.93;8.07;;;;;;;;;;6115901;28;20235;-66
2022/01/07 06:25:50;;;;;;;12.00;8.90;;;;;;;;;;6115740;28;20235;-65
2022/01/07 06:29:11;;;;;;;13.00;8.50;;;;;;;;;;6116412;28;20228;-66
2022/01/07 06:32:34;;;;;;;16.47;9.43;;;;;;;;;;6111462;28;20247;-65
2022/01/07 06:35:55;;;;;;;16.53;8.40;;;;;;;;;;6117747;28;20311;-67
2022/01/07 06:39:18;;;;;;;13.03;7.30;;;;;;;;;;6110056;28;20240;-65
2022/01/07 06:42:39;;;;;;;15.83;9.60;;;;;;;;;;6112399;28;20255;-66
2022/01/07 06:46:00;;;;;;;11.33;8.60;;;;;;;;;;6106866;28;20335;-65
2022/01/07 06:49:22;;;;;;;24.57;9.10;;;;;;;;;;6108870;28;20293;-65
2022/01/07 06:52:42;;;;;;;12.77;8.47;;;;;;;;;;6106463;28;20331;-66
2022/01/07 06:56:03;;;;;;;11.03;9.53;;;;;;;;;;6115270;28;20232;-65
2022/01/07 06:59:24;;;;;;;12.03;10.43;;;;;;;;;;6111872;28;20235;-65
2022/01/07 07:02:44;;;;;;;11.77;9.67;;;;;;;;;;6111478;28;20239;-66
2022/01/07 07:06:06;;;;;;;10.67;9.47;;;;;;;;;;6107915;28;20262;-65
2022/01/07 07:09:26;;;;;;;11.50;9.50;;;;;;;;;;6119725;28;20326;-66
2022/01/07 07:12:47;;;;;;;17.43;10.27;;;;;;;;;;6106311;28;20819;-65
2022/01/07 07:16:08;;;;;;;10.03;8.17;;;;;;;;;;6108335;28;20236;-64
2022/01/07 07:19:28;;;;;;;14.40;8.93;;;;;;;;;;6115294;28;20322;-66
2022/01/07 07:22:50;;;;;;;10.00;8.43;;;;;;;;;;6112278;28;20244;-66
2022/01/07 07:26:11;;;;;;;13.07;8.20;;;;;;;;;;6108379;28;20576;-66
2022/01/07 07:29:32;;;;;;;22.87;9.30;;;;;;;;;;6108382;28;20323;-67
2022/01/07 07:32:54;;;;;;;15.60;9.43;;;;;;;;;;6100389;28;20517;-65
2022/01/07 07:36:27;;;;;;;13.97;8.27;;;;;;;;;;6103477;28;20239;-65
2022/01/07 07:39:50;;;;;;;13.57;9.40;;;;;;;;;;6107738;28;20235;-65
2022/01/07 07:43:11;;;;;;;11.53;9.50;;;;;;;;;;6104842;28;20235;-64
2022/01/07 07:46:32;;;;;;;10.63;8.33;;;;;;;;;;6112437;28;20243;-65
2022/01/07 07:49:53;;;;;;;11.63;9.07;;;;;;;;;;6104242;28;20602;-66
2022/01/07 07:53:13;;;;;;;10.33;8.77;;;;;;;;;;6104356;28;20310;-64
2022/01/07 07:56:35;;;;;;;11.30;8.27;;;;;;;;;;6102723;28;20606;-64
2022/01/07 07:59:55;;;;;;;11.03;8.53;;;;;;;;;;6112082;28;20255;-65
2022/01/07 08:03:16;;;;;;;10.50;6.93;;;;;;;;;;6109369;28;20235;-66
2022/01/07 08:06:38;;;;;;;12.50;8.53;;;;;;;;;;6111430;28;20256;-66
2022/01/07 08:09:59;;;;;;;12.93;9.90;;;;;;;;;;6113959;28;20854;-64
2022/01/07 08:13:29;;;;;;;10.70;9.60;;;;;;;;;;6113215;28;20303;-65
2022/01/07 08:16:51;;;;;;;10.70;8.60;;;;;;;;;;6109320;28;20236;-66
2022/01/07 08:20:12;;;;;;;11.77;8.83;;;;;;;;;;6116932;28;20244;-65
2022/01/07 08:23:33;;;;;;;12.37;8.77;;;;;;;;;;6111925;28;20239;-65
2022/01/07 08:26:54;;;;;;;13.53;9.57;;;;;;;;;;6108481;28;20331;-63
2022/01/07 08:30:23;;;;;;;11.50;8.93;;;;;;;;;;6103397;28;20531;-65
2022/01/07 08:37:22;;;;;;;10.97;7.37;;;;;;;;;;6103787;28;20235;-65
2022/01/07 08:40:42;;;;;;;9.43;7.30;;;;;;;;;;6102798;28;20790;-64
2022/01/07 08:44:05;;;;;;;9.83;8.23;;;;;;;;;;6106727;28;20236;-65
2022/01/07 08:47:27;;;;;;;17.43;8.07;;;;;;;;;;6103624;28;20240;-66
2022/01/07 08:50:48;;;;;;;11.07;9.20;;;;;;;;;;6101301;28;20220;-65
2022/01/07 08:54:09;;;;;;;9.37;8.23;;;;;;;;;;6111716;28;20231;-65
2022/01/07 08:57:29;;;;;;;9.93;8.80;;;;;;;;;;6111198;28;20235;-65
2022/01/07 09:00:50;;;;;;;20.60;9.17;;;;;;;;;;6107266;28;20606;-64
2022/01/07 09:04:12;;;;;;;9.63;8.07;;;;;;;;;;6109935;28;20236;-65
2022/01/07 09:07:34;;;;;;;9.73;7.17;;;;;;;;;;6106717;28;20250;-64
2022/01/07 09:10:54;;;;;;;8.33;7.60;;;;;;;;;;6108163;28;20239;-65
2022/01/07 09:14:15;;;;;;;6.67;6.07;;;;;;;;;;6104552;28;20236;-64
2022/01/07 09:17:36;;;;;;;12.10;10.90;;;;;;;;;;6107985;28;20250;-64
2022/01/07 09:20:58;;;;;;;9.63;8.73;;;;;;;;;;6109433;28;20220;-65
2022/01/07 09:24:18;;;;;;;12.17;9.43;;;;;;;;;;6104534;28;20327;-65
2022/01/07 09:27:40;;;;;;;8.73;7.83;;;;;;;;;;6110508;28;20236;-67
2022/01/07 09:31:01;;;;;;;8.63;7.83;;;;;;;;;;6110183;28;20315;-66
2022/01/07 09:34:22;;;;;;;9.27;8.37;;;;;;;;;;6111309;28;21882;-64
2022/01/07 09:37:44;;;;;;;9.03;8.17;;;;;;;;;;6107781;28;20228;-66
2022/01/07 09:41:05;;;;;;;11.10;10.07;;;;;;;;;;6111525;28;20319;-65
2022/01/07 09:44:26;;;;;;;9.23;8.33;;;;;;;;;;6107849;28;20738;-65
2022/01/07 09:47:47;;;;;;;12.17;8.73;;;;;;;;;;6099913;28;20263;-65
2022/01/07 09:51:13;;;;;;;9.50;8.70;;;;;;;;;;6107143;28;20219;-64
2022/01/07 09:54:36;;;;;;;9.90;8.90;;;;;;;;;;6108926;28;20681;-65
2022/01/07 09:57:56;;;;;;;8.70;7.90;;;;;;;;;;6102535;28;21962;-65
2022/01/07 10:01:19;;;;;;;9.00;8.20;;;;;;;;;;6101532;28;20232;-66
2022/01/07 10:04:41;;;;;;;10.20;9.20;;;;;;;;;;6106798;28;21771;-65
2022/01/07 10:08:16;;;;;;;9.47;8.47;;;;;;;;;;6104837;28;20236;-64
2022/01/07 10:11:38;;;;;;;9.77;8.87;;;;;;;;;;6102795;28;20228;-65
2022/01/07 10:15:19;;;;;;;10.77;9.43;;;;;;;;;;6119864;28;20518;-66
2022/01/07 10:18:40;;;;;;;10.27;9.20;;;;;;;;;;6107769;28;20228;-66
2022/01/07 10:22:01;;;;;;;12.57;10.40;;;;;;;;;;6110769;28;20231;-63
2022/01/07 10:25:24;;;;;;;10.57;9.43;;;;;;;;;;6114637;28;20250;-64
2022/01/07 10:28:47;;;;;;;10.87;9.87;;;;;;;;;;6114492;28;20239;-64
2022/01/07 10:32:21;;;;;;;11.60;10.60;;;;;;;;;;6109063;28;20220;-63
2022/01/07 10:35:45;;;;;;;13.03;9.13;;;;;;;;;;6110058;28;20240;-65
2022/01/07 10:39:07;;;;;;;10.77;9.73;;;;;;;;;;6114036;28;20243;-65
2022/01/07 10:42:28;;;;;;;10.43;9.53;;;;;;;;;;6109556;28;20223;-65
2022/01/07 10:45:52;;;;;;;10.53;9.70;;;;;;;;;;6116520;28;20862;-66
2022/01/07 10:49:13;;;;;;;9.53;8.73;;;;;;;;;;6110670;28;20319;-65
2022/01/07 10:52:33;;;;;;;10.97;9.87;;;;;;;;;;6112434;28;20878;-65
2022/01/07 10:56:11;;;;;;;8.80;8.10;;;;;;;;;;6108578;28;20236;-65
2022/01/07 10:59:32;;;;;;;11.30;10.20;;;;;;;;;;6100825;28;21401;-66
2022/01/07 11:02:54;;;;;;;10.30;9.30;;;;;;;;;;6101402;28;20255;-65
2022/01/07 11:06:15;;;;;;;10.47;9.57;;;;;;;;;;6097173;28;20239;-65
2022/01/07 11:09:35;;;;;;;13.10;11.87;;;;;;;;;;6099617;28;20326;-65
2022/01/07 11:12:57;;;;;;;12.73;11.43;;;;;;;;;;6096902;28;20239;-66
2022/01/07 11:16:18;;;;;;;11.90;10.90;;;;;;;;;;6097749;28;20864;-66
2022/01/07 11:19:42;;;;;;;13.03;11.97;;;;;;;;;;6096444;28;20231;-64
2022/01/07 11:23:03;;;;;;;12.73;11.53;;;;;;;;;;6097607;28;22922;-66
2022/01/07 11:26:23;;;;;;;15.07;13.77;;;;;;;;;;6094413;28;20634;-65
2022/01/07 11:29:52;;;;;;;12.73;11.40;;;;;;;;;;6105915;28;20235;-65
2022/01/07 11:33:15;;;;;;;15.20;13.70;;;;;;;;;;6109068;28;20236;-66
2022/01/07 11:36:38;;;;;;;11.77;10.37;;;;;;;;;;6114710;28;20231;-66
2022/01/07 11:39:59;;;;;;;12.83;11.63;;;;;;;;;;6117308;28;20227;-67
2022/01/07 11:43:30;;;;;;;16.13;14.53;;;;;;;;;;6115245;28;20626;-65
2022/01/07 11:46:50;;;;;;;16.87;15.23;;;;;;;;;;6113475;28;20302;-65
2022/01/07 11:50:11;;;;;;;17.33;14.73;;;;;;;;;;6115616;28;20824;-64
2022/01/07 11:53:47;;;;;;;15.67;14.27;;;;;;;;;;6117570;28;20648;-65
2022/01/07 11:57:12;;;;;;;17.47;15.67;;;;;;;;;;6105449;28;20554;-65
2022/01/07 12:00:48;;;;;;;20.00;16.03;;;;;;;;;;6107144;28;20231;-63
2022/01/07 12:04:26;;;;;;;17.20;15.20;;;;;;;;;;6100253;28;20220;-66
2022/01/07 12:07:47;;;;;;;20.60;18.60;;;;;;;;;;6113909;28;20550;-64
2022/01/07 12:11:08;;;;;;;19.77;17.63;;;;;;;;;;6108235;28;20236;-66
2022/01/07 12:14:33;;;;;;;20.67;18.20;;;;;;;;;;6112036;28;20236;-64
2022/01/07 12:17:54;;;;;;;21.13;17.90;;;;;;;;;;6109672;28;20231;-65
2022/01/07 12:21:15;;;;;;;21.43;19.23;;;;;;;;;;6099029;28;20239;-63
2022/01/07 12:24:35;;;;;;;17.60;15.90;;;;;;;;;;6112451;28;20253;-63
2022/01/07 12:28:00;;;;;;;17.33;15.53;;;;;;;;;;6103546;28;20240;-62
2022/01/07 12:31:22;;;;;;;16.97;15.27;;;;;;;;;;6106730;28;20239;-62
2022/01/07 12:34:45;;;;;;;19.73;16.73;;;;;;;;;;6112200;28;20526;-63
2022/01/07 12:38:16;;;;;;;16.20;14.70;;;;;;;;;;6112064;28;20794;-63
2022/01/07 12:41:37;;;;;;;18.30;16.40;;;;;;;;;;6107401;28;20227;-63
2022/01/07 12:44:59;;;;;;;17.97;16.20;;;;;;;;;;6111469;28;20263;-64
2022/01/07 12:48:30;;;;;;;19.17;17.20;;;;;;;;;;6110630;28;20231;-65
2022/01/07 12:52:00;;;;;;;18.20;16.03;;;;;;;;;;6107291;28;20235;-67
2022/01/07 12:55:22;;;;;;;20.00;15.77;;;;;;;;;;6105592;28;20275;-67
2022/01/07 12:58:42;;;;;;;18.13;16.23;;;;;;;;;;6107242;28;20583;-65
2022/01/07 13:02:03;;;;;;;18.07;16.20;;;;;;;;;;6106383;28;20261;-67
2022/01/07 13:05:28;;;;;;;19.77;17.67;;;;;;;;;;6109769;28;20219;-65
2022/01/07 13:08:49;;;;;;;19.67;17.77;;;;;;;;;;6111218;28;20343;-65
2022/01/07 13:12:09;;;;;;;23.07;19.47;;;;;;;;;;6113408;28;20646;-64
2022/01/07 13:15:37;;;;;;;19.73;16.53;;;;;;;;;;6102227;28;20240;-64
2022/01/07 13:19:01;;;;;;;19.77;17.33;;;;;;;;;;6111923;28;20228;-65
2022/01/07 13:22:26;;;;;;;19.60;16.13;;;;;;;;;;6110057;28;20227;-66
2022/01/07 13:25:47;;;;;;;18.40;16.50;;;;;;;;;;6107384;28;20322;-64
2022/01/07 13:29:15;;;;;;;17.27;14.40;;;;;;;;;;6110613;28;20243;-64
2022/01/07 13:32:38;;;;;;;19.00;16.83;;;;;;;;;;6105273;28;20227;-64
2022/01/07 13:36:00;;;;;;;26.03;16.60;;;;;;;;;;6114813;28;20244;-64
2022/01/07 13:39:23;;;;;;;19.87;17.93;;;;;;;;;;6111148;28;20560;-64
2022/01/07 13:42:43;;;;;;;23.80;18.33;;;;;;;;;;6111612;28;20669;-64
2022/01/07 13:46:08;;;;;;;18.97;15.23;;;;;;;;;;6109140;28;20256;-64
2022/01/07 13:49:31;;;;;;;19.33;16.57;;;;;;;;;;6110556;28;20232;-64
2022/01/07 13:52:53;;;;;;;20.47;18.17;;;;;;;;;;6112309;28;20601;-65
2022/01/07 13:56:15;;;;;;;19.07;15.27;;;;;;;;;;6106796;28;20232;-65
2022/01/07 13:59:42;;;;;;;20.47;17.23;;;;;;;;;;6102264;28;20621;-66
2022/01/07 14:03:04;;;;;;;23.30;17.87;;;;;;;;;;6104610;28;20274;-65
2022/01/07 14:06:25;;;;;;;24.63;17.90;;;;;;;;;;6105800;28;20240;-64
2022/01/07 14:10:00;;;;;;;20.63;16.47;;;;;;;;;;6110477;28;20231;-65
2022/01/07 14:13:24;;;;;;;23.77;19.97;;;;;;;;;;6112725;28;20231;-65
2022/01/07 14:16:44;;;;;;;23.53;18.30;;;;;;;;;;6107172;28;20231;-64
2022/01/07 14:20:06;;;;;;;17.30;15.57;;;;;;;;;;6109645;28;20582;-65
2022/01/07 14:23:29;;;;;;;22.63;20.20;;;;;;;;;;6113565;28;20240;-67
2022/01/07 14:26:50;;;;;;;20.07;17.80;;;;;;;;;;6101722;28;20307;-65
2022/01/07 14:30:13;;;;;;;24.33;17.40;;;;;;;;;;6109783;28;20232;-65
2022/01/07 14:33:34;;;;;;;21.60;19.20;;;;;;;;;;6109852;28;20669;-66
2022/01/07 14:36:55;;;;;;;19.77;16.23;;;;;;;;;;6109652;28;20240;-66
2022/01/07 14:40:18;;;;;;;21.10;17.97;;;;;;;;;;6116210;28;20251;-65
2022/01/07 14:43:39;;;;;;;22.80;20.42;;;;;;;;;;6112481;28;20730;-65
2022/01/07 14:47:01;;;;;;;18.33;16.40;;;;;;;;;;6104120;28;20604;-65
2022/01/07 14:50:22;;;;;;;18.10;16.23;;;;;;;;;;6104988;28;20241;-65
2022/01/07 14:53:42;;;;;;;17.10;15.33;;;;;;;;;;6116968;28;20320;-65
2022/01/07 14:57:03;;;;;;;18.07;16.17;;;;;;;;;;6110507;28;20235;-64
2022/01/07 15:00:28;;;;;;;18.77;16.97;;;;;;;;;;6114031;28;21289;-64
2022/01/07 15:03:49;;;;;;;20.77;16.63;;;;;;;;;;6113203;28;20516;-65
2022/01/07 15:07:11;;;;;;;18.47;16.17;;;;;;;;;;6109446;28;20235;-65
2022/01/07 15:10:45;;;;;;;20.13;17.63;;;;;;;;;;6107023;28;21075;-65
2022/01/07 15:14:34;;;;;;;20.87;17.63;;;;;;;;;;6110337;28;20767;-64
2022/01/07 15:18:09;;;;;;;21.83;18.00;;;;;;;;;;6098858;28;20720;-65
2022/01/07 15:21:33;;;;;;;19.00;15.50;;;;;;;;;;6106010;28;20243;-64
2022/01/07 15:24:53;;;;;;;18.10;15.43;;;;;;;;;;6103625;28;20235;-65
2022/01/07 15:28:14;;;;;;;17.50;15.67;;;;;;;;;;6108263;28;20228;-66
2022/01/07 15:31:35;;;;;;;18.30;15.70;;;;;;;;;;6107980;28;20263;-64
2022/01/07 15:34:56;;;;;;;22.80;16.43;;;;;;;;;;6110954;28;20229;-65
2022/01/07 15:38:18;;;;;;;19.33;17.37;;;;;;;;;;6107337;28;20236;-64
2022/01/07 15:41:39;;;;;;;18.37;15.30;;;;;;;;;;6103153;28;20314;-65
2022/01/07 15:45:00;;;;;;;18.33;16.53;;;;;;;;;;6099739;28;20273;-63
2022/01/07 15:48:21;;;;;;;16.73;15.03;;;;;;;;;;6103506;28;20232;-65
2022/01/07 15:51:43;;;;;;;22.00;19.80;;;;;;;;;;6109467;28;20236;-65
2022/01/07 15:55:05;;;;;;;21.27;17.43;;;;;;;;;;6108755;28;20243;-64
2022/01/07 15:58:27;;;;;;;18.30;16.10;;;;;;;;;;6108234;28;21376;-64
2022/01/07 16:01:47;;;;;;;19.33;16.43;;;;;;;;;;6106495;28;20224;-65
2022/01/07 16:05:10;;;;;;;21.17;18.17;;;;;;;;;;6117349;28;20240;-65
2022/01/07 16:08:31;;;;;;;20.20;17.97;;;;;;;;;;6110577;28;20235;-65
2022/01/07 16:11:53;;;;;;;20.93;18.63;;;;;;;;;;6115749;28;20247;-65
2022/01/07 16:15:14;;;;;;;22.93;17.47;;;;;;;;;;6112657;28;20795;-66
2022/01/07 16:18:39;;;;;;;24.07;19.83;;;;;;;;;;6097924;28;20263;-65
2022/01/07 16:22:00;;;;;;;21.80;19.20;;;;;;;;;;6093007;28;20236;-64
2022/01/07 16:25:21;;;;;;;21.57;17.73;;;;;;;;;;6088554;28;20304;-64
2022/01/07 16:28:45;;;;;;;19.47;17.53;;;;;;;;;;6085962;28;20232;-63
2022/01/07 16:32:06;;;;;;;20.00;17.87;;;;;;;;;;6085149;28;20522;-65
2022/01/07 16:35:26;;;;;;;20.63;18.47;;;;;;;;;;6084432;28;20243;-65
2022/01/07 16:38:47;;;;;;;18.87;16.40;;;;;;;;;;6089831;28;20244;-66
2022/01/07 16:42:13;;;;;;;20.60;17.20;;;;;;;;;;6089899;28;20259;-64
2022/01/07 16:45:35;;;;;;;22.17;17.40;;;;;;;;;;6085551;28;20667;-65
2022/01/07 16:48:57;;;;;;;20.20;17.77;;;;;;;;;;6107678;28;20255;-64
2022/01/07 16:52:18;;;;;;;22.63;19.93;;;;;;;;;;6110461;28;20618;-64
2022/01/07 16:55:41;;;;;;;19.03;16.87;;;;;;;;;;6113086;28;20250;-65
2022/01/07 16:59:02;;;;;;;20.47;17.07;;;;;;;;;;6101440;28;20263;-64
2022/01/07 17:02:24;;;;;;;23.33;18.60;;;;;;;;;;6117508;28;20236;-64
2022/01/07 17:05:45;;;;;;;21.07;17.07;;;;;;;;;;6106757;28;20236;-66
2022/01/07 17:09:06;;;;;;;20.33;18.17;;;;;;;;;;6112849;28;20534;-66
2022/01/07 17:12:26;;;;;;;22.30;18.43;;;;;;;;;;6111206;28;20236;-65
2022/01/07 17:15:48;;;;;;;24.67;20.90;;;;;;;;;;6111974;28;20523;-65
2022/01/07 17:19:10;;;;;;;23.00;20.50;;;;;;;;;;6108570;28;20263;-65
2022/01/07 17:22:34;;;;;;;21.90;19.60;;;;;;;;;;6112249;28;20239;-65
2022/01/07 17:25:56;;;;;;;19.50;17.67;;;;;;;;;;6116090;28;20235;-65
2022/01/07 17:29:16;;;;;;;21.13;19.07;;;;;;;;;;6112293;28;20680;-65
2022/01/07 17:32:37;;;;;;;21.03;18.33;;;;;;;;;;6113220;28;20251;-66
2022/01/07 17:36:00;;;;;;;22.77;20.33;;;;;;;;;;6111118;28;20240;-65
2022/01/07 17:39:21;;;;;;;21.83;19.47;;;;;;;;;;6114576;28;20227;-65
2022/01/07 17:42:41;;;;;;;24.90;20.03;;;;;;;;;;6114401;28;20236;-65
2022/01/07 17:46:02;;;;;;;22.43;19.97;;;;;;;;;;6112567;28;20500;-65
2022/01/07 17:49:22;;;;;;;21.37;19.27;;;;;;;;;;6108855;28;20231;-65
2022/01/07 17:52:44;;;;;;;22.57;20.17;;;;;;;;;;6108314;28;20614;-66
2022/01/07 17:56:05;;;;;;;22.03;19.80;;;;;;;;;;6103920;28;20240;-65
2022/01/07 17:59:25;;;;;;;23.07;20.57;;;;;;;;;;6094962;28;20243;-66
2022/01/07 18:02:46;;;;;;;25.47;20.90;;;;;;;;;;6098287;28;20277;-65
2022/01/07 18:06:06;;;;;;;25.47;21.80;;;;;;;;;;6103022;28;21371;-66
2022/01/07 18:09:28;;;;;;;23.13;20.70;;;;;;;;;;6099296;28;20240;-64
2022/01/07 18:12:48;;;;;;;22.67;20.50;;;;;;;;;;6106366;28;20236;-65
2022/01/07 18:16:10;;;;;;;23.30;21.13;;;;;;;;;;6100246;28;20236;-65
2022/01/07 18:19:30;;;;;;;24.30;21.80;;;;;;;;;;6101178;28;20538;-66
2022/01/07 18:22:51;;;;;;;24.50;21.90;;;;;;;;;;6103206;28;20228;-67
2022/01/07 18:26:13;;;;;;;22.70;20.60;;;;;;;;;;6113587;28;20235;-67
2022/01/07 18:29:34;;;;;;;25.17;22.67;;;;;;;;;;6113100;28;20238;-66
2022/01/07 18:32:55;;;;;;;22.53;20.20;;;;;;;;;;6119089;28;20242;-66
2022/01/07 18:36:16;;;;;;;23.77;21.43;;;;;;;;;;6118876;28;20231;-64
2022/01/07 18:39:36;;;;;;;22.13;19.93;;;;;;;;;;6114710;28;20236;-66
2022/01/07 18:42:58;;;;;;;23.37;21.07;;;;;;;;;;6118765;28;20770;-66
2022/01/07 18:46:22;;;;;;;23.70;21.50;;;;;;;;;;6118575;28;20263;-64
2022/01/07 18:49:43;;;;;;;24.20;21.80;;;;;;;;;;6114217;28;20231;-66
2022/01/07 18:53:07;;;;;;;23.87;20.90;;;;;;;;;;6111213;28;20652;-68
2022/01/07 18:56:28;;;;;;;23.97;21.57;;;;;;;;;;6113775;28;20693;-66
2022/01/07 18:59:50;;;;;;;25.23;22.80;;;;;;;;;;6110111;28;20236;-66
2022/01/07 19:03:12;;;;;;;26.67;23.83;;;;;;;;;;6105897;28;20516;-65
2022/01/07 19:06:32;;;;;;;25.53;22.90;;;;;;;;;;6111818;28;20243;-66
2022/01/07 19:09:53;;;;;;;25.50;21.90;;;;;;;;;;6113244;28;20235;-66
2022/01/07 19:13:13;;;;;;;23.00;20.67;;;;;;;;;;6115791;28;20658;-67
2022/01/07 19:16:35;;;;;;;25.37;22.30;;;;;;;;;;6106274;28;20231;-66
2022/01/07 19:19:55;;;;;;;25.07;21.17;;;;;;;;;;6106041;28;20321;-66
2022/01/07 19:23:16;;;;;;;23.70;21.30;;;;;;;;;;6107780;28;20582;-64
2022/01/07 19:26:36;;;;;;;23.30;20.93;;;;;;;;;;6115259;28;20232;-65
2022/01/07 19:29:57;;;;;;;25.00;22.50;;;;;;;;;;6112493;28;20233;-65
2022/01/07 19:33:20;;;;;;;27.10;24.07;;;;;;;;;;6115846;28;20630;-66
2022/01/07 19:36:42;;;;;;;28.20;25.30;;;;;;;;;;6114665;28;20248;-64
2022/01/07 19:40:04;;;;;;;25.43;22.40;;;;;;;;;;6110985;28;20228;-65
2022/01/07 19:43:24;;;;;;;24.67;22.27;;;;;;;;;;6112125;28;20232;-65
2022/01/07 19:46:48;;;;;;;26.57;22.90;;;;;;;;;;6113813;28;20236;-65
2022/01/07 19:50:10;;;;;;;25.60;22.47;;;;;;;;;;6103881;28;20228;-64